createdAt,value
2018-09-23T00:00:12.653Z,4.3
2018-09-23T00:00:42.539Z,4.2
2018-09-23T00:01:12.270Z,4.1
2018-09-23T00:01:41.962Z,3.9
2018-09-23T00:02:11.140Z,4.2
2018-09-23T00:02:40.763Z,4.1
2018-09-23T00:03:10.245Z,4
2018-09-23T00:03:39.590Z,4.1
2018-09-23T00:04:09.148Z,4
2018-09-23T00:04:38.599Z,4.2
2018-09-23T00:05:08.093Z,4.4
2018-09-23T00:05:37.710Z,4
2018-09-23T00:06:07.232Z,4.2
2018-09-23T00:06:36.730Z,4.2
2018-09-23T00:07:06.700Z,4.1
2018-09-23T00:07:36.375Z,4.3
2018-09-23T00:08:06.132Z,4
2018-09-23T00:08:35.452Z,4.7
2018-09-23T00:09:04.789Z,4.3
2018-09-23T00:09:34.129Z,4.4
2018-09-23T00:10:03.828Z,4.5
2018-09-23T00:10:33.548Z,4.1
2018-09-23T00:11:03.417Z,4.2
2018-09-23T00:11:32.851Z,3.9
2018-09-23T00:12:02.624Z,4.2
2018-09-23T00:12:32.487Z,4.3
2018-09-23T00:13:02.924Z,4.2
2018-09-23T00:13:32.473Z,4.5
2018-09-23T00:14:01.859Z,4.5
2018-09-23T00:14:31.505Z,4
2018-09-23T00:15:01.041Z,4.2
2018-09-23T00:15:30.783Z,4.1
2018-09-23T00:16:00.140Z,4
2018-09-23T00:16:29.561Z,4.2
2018-09-23T00:16:59.905Z,4.6
2018-09-23T00:17:29.396Z,4.3
2018-09-23T00:17:59.179Z,4.2
2018-09-23T00:18:28.549Z,4.1
2018-09-23T00:18:57.958Z,4
2018-09-23T00:19:27.296Z,3.5
2018-09-23T00:19:58.836Z,4
2018-09-23T00:20:31.129Z,4
2018-09-23T00:21:02.131Z,3.8
2018-09-23T00:21:31.682Z,4.1
2018-09-23T00:22:01.408Z,4.1
2018-09-23T00:22:31.264Z,4.1
2018-09-23T00:23:00.741Z,4.5
2018-09-23T00:23:30.454Z,4.2
2018-09-23T00:24:00.642Z,4
2018-09-23T00:24:30.001Z,4.6
2018-09-23T00:25:00.783Z,4
2018-09-23T00:25:30.244Z,4
2018-09-23T00:26:00.194Z,4.2
2018-09-23T00:26:29.530Z,3.9
2018-09-23T00:26:59.201Z,4.5
2018-09-23T00:27:28.788Z,4.3
2018-09-23T00:27:58.451Z,4
2018-09-23T00:28:51.402Z,4
2018-09-23T00:29:47.372Z,4.1
2018-09-23T00:30:31.991Z,3.9
2018-09-23T00:31:26.281Z,4
2018-09-23T00:31:58.829Z,4.1
2018-09-23T00:32:28.990Z,4
2018-09-23T00:32:58.896Z,4.1
2018-09-23T00:33:28.779Z,4.2
2018-09-23T00:34:07.433Z,4.3
2018-09-23T00:34:53.836Z,4.1
2018-09-23T00:35:27.600Z,3.9
2018-09-23T00:36:10.840Z,3.8
2018-09-23T00:36:48.360Z,4
2018-09-23T00:37:21.588Z,4.2
2018-09-23T00:37:54.949Z,4
2018-09-23T00:38:46.906Z,4.2
2018-09-23T00:39:37.317Z,4.1
2018-09-23T00:40:20.275Z,4.1
2018-09-23T00:41:01.897Z,3.9
2018-09-23T00:41:34.440Z,4.2
2018-09-23T00:42:07.936Z,4.1
2018-09-23T00:42:54.869Z,3.9
2018-09-23T00:43:38.196Z,4.4
2018-09-23T00:44:14.602Z,4.2
2018-09-23T00:44:48.885Z,4.1
2018-09-23T00:45:18.764Z,4.3
2018-09-23T00:45:48.544Z,4.1
2018-09-23T00:46:18.399Z,4.3
2018-09-23T00:46:47.918Z,4.3
2018-09-23T00:47:17.699Z,4.2
2018-09-23T00:47:47.339Z,5
2018-09-23T00:48:17.135Z,4.8
2018-09-23T00:48:46.895Z,4.7
2018-09-23T00:49:16.760Z,4.7
2018-09-23T00:49:47.572Z,4.6
2018-09-23T00:50:17.388Z,4.7
2018-09-23T00:50:47.510Z,4.6
2018-09-23T00:51:17.482Z,5.4
2018-09-23T00:51:49.726Z,4.8
2018-09-23T00:52:19.707Z,4.4
2018-09-23T00:52:49.496Z,4.5
2018-09-23T00:53:19.298Z,4.1
2018-09-23T00:53:49.712Z,4.6
2018-09-23T00:54:19.615Z,4.2
2018-09-23T00:54:49.757Z,3.9
2018-09-23T00:55:19.594Z,4
2018-09-23T00:55:49.390Z,4
2018-09-23T00:56:20.060Z,3.8
2018-09-23T00:56:50.657Z,3.9
2018-09-23T00:57:21.642Z,4.1
2018-09-23T00:57:51.525Z,4.3
2018-09-23T00:58:21.578Z,4
2018-09-23T00:58:52.943Z,4
2018-09-23T00:59:23.039Z,3.9
2018-09-23T00:59:53.520Z,4.2
2018-09-23T01:00:22.885Z,4.1
2018-09-23T01:00:53.489Z,4
2018-09-23T01:01:23.051Z,4
2018-09-23T01:01:52.610Z,4
2018-09-23T01:02:22.288Z,3.7
2018-09-23T01:02:52.242Z,4.2
2018-09-23T01:03:23.207Z,4
2018-09-23T01:03:56.464Z,4
2018-09-23T01:04:31.770Z,3.6
2018-09-23T01:05:06.626Z,4.1
2018-09-23T01:05:37.115Z,3.8
2018-09-23T01:06:07.594Z,3.9
2018-09-23T01:06:37.309Z,4
2018-09-23T01:07:07.658Z,3.9
2018-09-23T01:07:37.340Z,3.8
2018-09-23T01:08:07.888Z,3.6
2018-09-23T01:08:38.249Z,3.9
2018-09-23T01:09:08.219Z,3.7
2018-09-23T01:09:37.990Z,4.1
2018-09-23T01:10:07.958Z,3.9
2018-09-23T01:10:37.692Z,3.9
2018-09-23T01:11:07.840Z,3.8
2018-09-23T01:11:38.017Z,3.7
2018-09-23T01:12:10.267Z,3.9
2018-09-23T01:12:40.916Z,3.7
2018-09-23T01:13:11.856Z,3.7
2018-09-23T01:13:42.506Z,3.7
2018-09-23T01:14:12.830Z,3.9
2018-09-23T01:14:43.970Z,4
2018-09-23T01:15:14.595Z,3.8
2018-09-23T01:15:45.613Z,3.8
2018-09-23T01:16:16.445Z,3.9
2018-09-23T01:16:46.864Z,3.8
2018-09-23T01:17:17.691Z,3.5
2018-09-23T01:17:48.304Z,3.6
2018-09-23T01:18:18.513Z,3.7
2018-09-23T01:18:48.671Z,3.8
2018-09-23T01:19:18.802Z,3.6
2018-09-23T01:19:49.611Z,4
2018-09-23T01:20:20.254Z,3.8
2018-09-23T01:20:50.552Z,3.8
2018-09-23T01:21:20.976Z,3.7
2018-09-23T01:21:51.687Z,4.2
2018-09-23T01:22:23.359Z,4
2018-09-23T01:22:53.955Z,3.8
2018-09-23T01:23:24.383Z,3.5
2018-09-23T01:23:54.980Z,3.8
2018-09-23T01:24:25.406Z,4
2018-09-23T01:24:56.752Z,3.5
2018-09-23T01:25:27.666Z,4.5
2018-09-23T01:26:00.609Z,3.5
2018-09-23T01:26:33.585Z,3.7
2018-09-23T01:27:09.224Z,3.6
2018-09-23T01:27:43.331Z,3.9
2018-09-23T01:28:14.160Z,3.7
2018-09-23T01:28:44.677Z,3.7
2018-09-23T01:29:15.393Z,3.7
2018-09-23T01:29:45.820Z,3.7
2018-09-23T01:30:16.240Z,3.7
2018-09-23T01:30:47.064Z,3.8
2018-09-23T01:31:20.205Z,3.7
2018-09-23T01:31:51.381Z,3.8
2018-09-23T01:32:21.663Z,3.7
2018-09-23T01:32:52.272Z,3.8
2018-09-23T01:33:22.816Z,4.1
2018-09-23T01:33:53.037Z,3.8
2018-09-23T01:34:23.511Z,3.7
2018-09-23T01:34:53.695Z,4
2018-09-23T01:35:23.810Z,3.8
2018-09-23T01:35:53.887Z,3.9
2018-09-23T01:36:24.111Z,4
2018-09-23T01:36:54.619Z,3.7
2018-09-23T01:37:24.917Z,3.6
2018-09-23T01:37:55.484Z,3.8
2018-09-23T01:38:25.942Z,3.8
2018-09-23T01:38:56.107Z,3.5
2018-09-23T01:39:26.626Z,3.9
2018-09-23T01:39:57.536Z,3.3
2018-09-23T01:40:27.841Z,3.7
2018-09-23T01:40:58.080Z,3.5
2018-09-23T01:41:28.348Z,3.6
2018-09-23T01:41:58.548Z,3.6
2018-09-23T01:42:29.051Z,3.2
2018-09-23T01:42:59.368Z,3.4
2018-09-23T01:43:29.524Z,3.6
2018-09-23T01:43:59.755Z,3.6
2018-09-23T01:44:29.856Z,3.5
2018-09-23T01:44:59.999Z,3.5
2018-09-23T01:45:30.240Z,3.5
2018-09-23T01:46:00.416Z,3.8
2018-09-23T01:46:31.658Z,3.5
2018-09-23T01:47:01.984Z,3.6
2018-09-23T01:47:32.338Z,3.4
2018-09-23T01:48:02.435Z,3.7
2018-09-23T01:48:33.101Z,3.5
2018-09-23T01:49:03.605Z,3.7
2018-09-23T01:49:33.828Z,3.4
2018-09-23T01:50:04.071Z,3.6
2018-09-23T01:50:34.137Z,3.6
2018-09-23T01:51:04.286Z,3.4
2018-09-23T01:51:34.659Z,3.5
2018-09-23T01:52:05.166Z,3.5
2018-09-23T01:52:35.459Z,3.5
2018-09-23T01:53:05.951Z,3.5
2018-09-23T01:53:36.306Z,3.4
2018-09-23T01:54:06.633Z,3.3
2018-09-23T01:54:36.774Z,3.6
2018-09-23T01:55:06.891Z,3.7
2018-09-23T01:55:37.049Z,3.6
2018-09-23T01:56:07.124Z,3.2
2018-09-23T01:56:37.309Z,3.5
2018-09-23T01:57:06.699Z,3.6
2018-09-23T01:57:36.059Z,3.6
2018-09-23T01:58:06.417Z,3.5
2018-09-23T01:58:35.727Z,3.4
2018-09-23T01:59:05.146Z,3.4
2018-09-23T01:59:34.470Z,3.6
2018-09-23T02:00:03.774Z,3.9
2018-09-23T02:00:33.112Z,3.5
2018-09-23T02:01:03.367Z,3.6
2018-09-23T02:01:32.690Z,3.5
2018-09-23T02:02:01.960Z,3.8
2018-09-23T02:02:31.246Z,3.9
2018-09-23T02:03:00.561Z,3.7
2018-09-23T02:03:29.961Z,3.5
2018-09-23T02:03:59.244Z,3.8
2018-09-23T02:04:28.533Z,3.6
2018-09-23T02:04:57.843Z,3.7
2018-09-23T02:05:27.142Z,3.7
2018-09-23T02:05:56.484Z,3.6
2018-09-23T02:06:26.817Z,3.4
2018-09-23T02:06:56.100Z,3.5
2018-09-23T02:07:26.353Z,3.6
2018-09-23T02:07:55.607Z,3.2
2018-09-23T02:08:24.990Z,3.6
2018-09-23T02:08:54.283Z,3.6
2018-09-23T02:09:23.570Z,3.4
2018-09-23T02:09:52.876Z,3.2
2018-09-23T02:10:22.233Z,3.3
2018-09-23T02:10:51.544Z,3.2
2018-09-23T02:11:20.910Z,3.5
2018-09-23T02:11:50.170Z,3.2
2018-09-23T02:12:19.467Z,3.1
2018-09-23T02:12:48.786Z,3.4
2018-09-23T02:13:18.087Z,3.2
2018-09-23T02:13:47.474Z,3.1
2018-09-23T02:14:16.782Z,3.2
2018-09-23T02:14:46.170Z,3.1
2018-09-23T02:15:15.441Z,3.3
2018-09-23T02:15:44.746Z,3.4
2018-09-23T02:16:14.027Z,3.4
2018-09-23T02:16:43.279Z,3.3
2018-09-23T02:17:12.617Z,3.4
2018-09-23T02:17:42.899Z,3.3
2018-09-23T02:18:12.192Z,3.3
2018-09-23T02:18:41.561Z,3.3
2018-09-23T02:19:10.863Z,3.2
2018-09-23T02:19:40.164Z,3.1
2018-09-23T02:20:09.503Z,3.1
2018-09-23T02:20:38.818Z,3.3
2018-09-23T02:21:08.169Z,3.2
2018-09-23T02:21:37.398Z,3.2
2018-09-23T02:22:06.697Z,3.1
2018-09-23T02:22:36.029Z,3.1
2018-09-23T02:23:06.283Z,3.3
2018-09-23T02:23:35.577Z,3.5
2018-09-23T02:24:04.896Z,3.2
2018-09-23T02:24:35.153Z,3.6
2018-09-23T02:25:04.427Z,3.4
2018-09-23T02:25:33.712Z,3.3
2018-09-23T02:26:02.998Z,3.2
2018-09-23T02:26:32.306Z,3.3
2018-09-23T02:27:01.636Z,3.3
2018-09-23T02:27:30.899Z,3.3
2018-09-23T02:28:00.197Z,3
2018-09-23T02:28:29.499Z,3.2
2018-09-23T02:28:58.836Z,3.5
2018-09-23T02:29:28.172Z,3.4
2018-09-23T02:29:57.479Z,3.8
2018-09-23T02:30:26.772Z,3.8
2018-09-23T02:30:56.093Z,3.9
2018-09-23T02:31:25.367Z,3.4
2018-09-23T02:31:54.650Z,3.6
2018-09-23T02:32:23.904Z,3.9
2018-09-23T02:32:53.188Z,3.5
2018-09-23T02:33:22.533Z,3.4
2018-09-23T02:33:51.875Z,3.6
2018-09-23T02:34:21.244Z,3.5
2018-09-23T02:34:50.528Z,3.5
2018-09-23T02:35:19.803Z,3.4
2018-09-23T02:35:49.086Z,3.2
2018-09-23T02:36:18.397Z,3.4
2018-09-23T02:36:47.672Z,3.5
2018-09-23T02:37:16.969Z,3.4
2018-09-23T02:37:46.235Z,3.2
2018-09-23T02:38:17.514Z,2.9
2018-09-23T02:38:46.779Z,3.2
2018-09-23T02:39:16.097Z,3.4
2018-09-23T02:39:45.466Z,3.2
2018-09-23T02:40:15.726Z,3.4
2018-09-23T02:40:45.064Z,3.2
2018-09-23T02:41:14.339Z,3.2
2018-09-23T02:41:43.683Z,3.4
2018-09-23T02:42:12.982Z,3
2018-09-23T02:42:42.295Z,3.3
2018-09-23T02:43:11.606Z,3.5
2018-09-23T02:43:40.942Z,3.3
2018-09-23T02:44:10.237Z,3.1
2018-09-23T02:44:39.608Z,3.1
2018-09-23T02:45:08.901Z,3.2
2018-09-23T02:45:38.167Z,3.1
2018-09-23T02:46:07.520Z,3
2018-09-23T02:46:36.851Z,3.5
2018-09-23T02:47:06.173Z,3.3
2018-09-23T02:47:35.481Z,3.2
2018-09-23T02:48:04.740Z,3.3
2018-09-23T02:48:34.053Z,3.1
2018-09-23T02:49:03.369Z,3.4
2018-09-23T02:49:32.701Z,3.1
2018-09-23T02:50:02.043Z,3.5
2018-09-23T02:50:31.307Z,3
2018-09-23T02:51:00.575Z,3.3
2018-09-23T02:51:29.838Z,3.3
2018-09-23T02:51:59.167Z,3
2018-09-23T02:52:28.451Z,3
2018-09-23T02:52:57.701Z,3.2
2018-09-23T02:53:27.977Z,3.3
2018-09-23T02:53:57.268Z,3.3
2018-09-23T02:54:26.643Z,3
2018-09-23T02:54:55.925Z,3.1
2018-09-23T02:55:25.169Z,3.1
2018-09-23T02:55:54.442Z,3.6
2018-09-23T02:56:23.776Z,3.7
2018-09-23T02:56:53.072Z,2.9
2018-09-23T02:57:22.320Z,3.2
2018-09-23T02:57:51.635Z,3.1
2018-09-23T02:58:20.931Z,3.1
2018-09-23T02:58:50.225Z,3.3
2018-09-23T02:59:19.510Z,3.1
2018-09-23T02:59:48.840Z,3.1
2018-09-23T03:00:18.128Z,3.4
2018-09-23T03:00:47.443Z,3.1
2018-09-23T03:01:16.732Z,3.6
2018-09-23T03:01:45.992Z,2.9
2018-09-23T03:02:16.251Z,3
2018-09-23T03:02:45.530Z,2.8
2018-09-23T03:03:14.808Z,3
2018-09-23T03:03:44.176Z,2.9
2018-09-23T03:04:13.487Z,2.9
2018-09-23T03:04:42.796Z,3
2018-09-23T03:05:12.159Z,2.9
2018-09-23T03:05:41.434Z,3
2018-09-23T03:06:10.800Z,3
2018-09-23T03:06:40.102Z,3.1
2018-09-23T03:07:09.382Z,2.8
2018-09-23T03:07:38.672Z,3
2018-09-23T03:08:07.938Z,3.1
2018-09-23T03:08:37.209Z,2.8
2018-09-23T03:09:06.466Z,3.2
2018-09-23T03:09:35.749Z,3.1
2018-09-23T03:10:05.076Z,3
2018-09-23T03:10:34.361Z,3.3
2018-09-23T03:11:03.700Z,3.1
2018-09-23T03:11:33.019Z,3.3
2018-09-23T03:12:02.365Z,3
2018-09-23T03:12:31.668Z,3.1
2018-09-23T03:13:01.004Z,3.4
2018-09-23T03:13:30.333Z,3.3
2018-09-23T03:13:59.718Z,2.9
2018-09-23T03:14:29.004Z,3.3
2018-09-23T03:14:58.303Z,3.1
2018-09-23T03:15:27.601Z,3
2018-09-23T03:15:56.900Z,3.2
2018-09-23T03:16:26.335Z,3.1
2018-09-23T03:16:55.704Z,3
2018-09-23T03:17:25.032Z,3.3
2018-09-23T03:17:54.344Z,3.1
2018-09-23T03:18:23.637Z,3
2018-09-23T03:18:52.953Z,3.3
2018-09-23T03:19:22.251Z,2.9
2018-09-23T03:19:51.536Z,3.3
2018-09-23T03:20:21.856Z,3.5
2018-09-23T03:20:51.112Z,3.1
2018-09-23T03:21:20.463Z,3.2
2018-09-23T03:21:49.832Z,3.1
2018-09-23T03:22:19.203Z,3.1
2018-09-23T03:22:48.479Z,3.2
2018-09-23T03:23:17.788Z,2.9
2018-09-23T03:23:47.161Z,3.5
2018-09-23T03:24:16.523Z,2.9
2018-09-23T03:24:45.844Z,3
2018-09-23T03:25:15.210Z,3.1
2018-09-23T03:25:44.516Z,2.9
2018-09-23T03:26:13.897Z,3
2018-09-23T03:26:43.212Z,3
2018-09-23T03:27:12.473Z,3.1
2018-09-23T03:27:41.898Z,2.9
2018-09-23T03:28:11.162Z,3.1
2018-09-23T03:28:40.461Z,2.6
2018-09-23T03:29:09.769Z,3
2018-09-23T03:29:39.036Z,2.9
2018-09-23T03:30:08.344Z,3.1
2018-09-23T03:30:37.756Z,3.1
2018-09-23T03:31:07.173Z,3.1
2018-09-23T03:31:37.488Z,3.1
2018-09-23T03:32:06.795Z,3
2018-09-23T03:32:36.143Z,3
2018-09-23T03:33:05.476Z,3
2018-09-23T03:33:34.794Z,3.1
2018-09-23T03:34:04.131Z,2.9
2018-09-23T03:34:33.475Z,2.8
2018-09-23T03:35:02.841Z,2.8
2018-09-23T03:35:32.275Z,3.1
2018-09-23T03:36:01.610Z,2.9
2018-09-23T03:36:30.910Z,3
2018-09-23T03:37:00.257Z,3
2018-09-23T03:37:29.577Z,3.2
2018-09-23T03:37:58.859Z,2.7
2018-09-23T03:38:28.133Z,3.2
2018-09-23T03:38:57.408Z,3
2018-09-23T03:39:26.736Z,2.8
2018-09-23T03:39:56.090Z,3
2018-09-23T03:40:25.417Z,3.2
2018-09-23T03:40:54.810Z,3.2
2018-09-23T03:41:24.131Z,2.8
2018-09-23T03:41:53.505Z,2.6
2018-09-23T03:42:22.822Z,3
2018-09-23T03:42:52.173Z,3
2018-09-23T03:43:21.478Z,3
2018-09-23T03:43:50.821Z,3.1
2018-09-23T03:44:20.203Z,3
2018-09-23T03:44:49.536Z,2.9
2018-09-23T03:45:18.833Z,2.9
2018-09-23T03:45:48.240Z,2.8
2018-09-23T03:46:17.615Z,3.2
2018-09-23T03:46:46.935Z,3.2
2018-09-23T03:47:16.293Z,3
2018-09-23T03:47:45.650Z,3
2018-09-23T03:48:14.958Z,3.2
2018-09-23T03:48:44.360Z,2.9
2018-09-23T03:49:13.673Z,3
2018-09-23T03:49:42.943Z,3.2
2018-09-23T03:50:12.213Z,3.2
2018-09-23T03:50:41.515Z,3.1
2018-09-23T03:51:10.852Z,2.9
2018-09-23T03:51:40.190Z,3.2
2018-09-23T03:52:09.467Z,3
2018-09-23T03:52:38.748Z,3
2018-09-23T03:53:08.048Z,2.8
2018-09-23T03:53:37.337Z,2.7
2018-09-23T03:54:06.612Z,2.9
2018-09-23T03:54:35.890Z,3
2018-09-23T03:55:05.163Z,3.2
2018-09-23T03:55:34.434Z,3
2018-09-23T03:56:03.709Z,3
2018-09-23T03:56:33.069Z,2.8
2018-09-23T03:57:02.337Z,2.9
2018-09-23T03:57:31.614Z,2.7
2018-09-23T03:58:00.975Z,3.1
2018-09-23T03:58:30.256Z,3.2
2018-09-23T03:58:59.574Z,2.9
2018-09-23T03:59:28.900Z,2.9
2018-09-23T03:59:59.184Z,2.9
2018-09-23T04:00:28.477Z,2.9
2018-09-23T04:00:57.783Z,2.9
2018-09-23T04:01:27.131Z,3
2018-09-23T04:01:56.384Z,3
2018-09-23T04:02:26.721Z,3
2018-09-23T04:02:56.023Z,3
2018-09-23T04:03:25.290Z,3
2018-09-23T04:03:54.575Z,2.8
2018-09-23T04:04:23.862Z,2.9
2018-09-23T04:04:53.150Z,3.3
2018-09-23T04:05:22.508Z,3.2
2018-09-23T04:05:51.833Z,3
2018-09-23T04:06:21.104Z,3
2018-09-23T04:06:50.502Z,2.7
2018-09-23T04:07:19.752Z,2.8
2018-09-23T04:07:49.054Z,3
2018-09-23T04:08:18.990Z,3.3
2018-09-23T04:08:49.273Z,3
2018-09-23T04:09:18.575Z,2.9
2018-09-23T04:09:48.098Z,2.9
2018-09-23T04:10:17.457Z,3
2018-09-23T04:10:46.764Z,2.9
2018-09-23T04:11:16.064Z,2.8
2018-09-23T04:11:45.461Z,3.3
2018-09-23T04:12:14.931Z,3.1
2018-09-23T04:12:44.046Z,3.1
2018-09-23T04:13:13.343Z,3.2
2018-09-23T04:13:42.670Z,3.1
2018-09-23T04:14:11.977Z,3
2018-09-23T04:14:41.277Z,3
2018-09-23T04:15:10.574Z,3.2
2018-09-23T04:15:39.910Z,3.3
2018-09-23T04:16:10.216Z,2.8
2018-09-23T04:16:39.493Z,2.8
2018-09-23T04:17:08.847Z,3
2018-09-23T04:17:38.099Z,2.9
2018-09-23T04:18:07.391Z,3.2
2018-09-23T04:18:36.712Z,3.1
2018-09-23T04:19:06.048Z,2.9
2018-09-23T04:19:35.371Z,3
2018-09-23T04:20:04.748Z,2.9
2018-09-23T04:20:33.991Z,2.7
2018-09-23T04:21:03.284Z,3.2
2018-09-23T04:21:32.586Z,2.8
2018-09-23T04:22:01.929Z,3.2
2018-09-23T04:22:31.239Z,3
2018-09-23T04:23:01.536Z,3.2
2018-09-23T04:23:30.816Z,2.8
2018-09-23T04:24:00.190Z,2.7
2018-09-23T04:24:29.480Z,3.2
2018-09-23T04:24:58.869Z,3
2018-09-23T04:25:28.173Z,2.8
2018-09-23T04:25:57.461Z,2.9
2018-09-23T04:26:26.839Z,3.2
2018-09-23T04:26:56.199Z,2.8
2018-09-23T04:27:25.512Z,2.9
2018-09-23T04:27:54.804Z,2.8
2018-09-23T04:28:24.104Z,3.1
2018-09-23T04:28:53.423Z,3.2
2018-09-23T04:29:22.742Z,2.9
2018-09-23T04:29:52.013Z,3.1
2018-09-23T04:30:21.312Z,3.2
2018-09-23T04:30:50.614Z,2.8
2018-09-23T04:31:19.922Z,2.9
2018-09-23T04:31:49.202Z,2.8
2018-09-23T04:32:18.554Z,2.9
2018-09-23T04:32:47.844Z,3.3
2018-09-23T04:33:17.163Z,2.9
2018-09-23T04:33:46.545Z,2.9
2018-09-23T04:34:15.824Z,2.8
2018-09-23T04:34:45.096Z,3
2018-09-23T04:35:14.383Z,2.9
2018-09-23T04:35:43.674Z,3.1
2018-09-23T04:36:12.955Z,2.9
2018-09-23T04:36:42.277Z,3.3
2018-09-23T04:37:11.618Z,3
2018-09-23T04:37:42.048Z,3.1
2018-09-23T04:38:11.392Z,3.2
2018-09-23T04:38:40.692Z,3.1
2018-09-23T04:39:09.942Z,3
2018-09-23T04:39:39.220Z,3.3
2018-09-23T04:40:08.556Z,3.1
2018-09-23T04:40:37.872Z,3.2
2018-09-23T04:41:07.158Z,3
2018-09-23T04:41:36.457Z,2.9
2018-09-23T04:42:05.727Z,3.1
2018-09-23T04:42:35.093Z,2.7
2018-09-23T04:43:04.382Z,3.3
2018-09-23T04:43:33.721Z,3
2018-09-23T04:44:03.024Z,3
2018-09-23T04:44:33.318Z,3
2018-09-23T04:45:02.709Z,2.8
2018-09-23T04:45:31.957Z,3.1
2018-09-23T04:46:01.254Z,3
2018-09-23T04:46:30.537Z,2.9
2018-09-23T04:46:59.793Z,3
2018-09-23T04:47:29.077Z,2.8
2018-09-23T04:47:58.441Z,2.8
2018-09-23T04:48:28.771Z,3
2018-09-23T04:48:58.086Z,3
2018-09-23T04:49:27.379Z,3
2018-09-23T04:49:56.667Z,2.9
2018-09-23T04:50:26.000Z,2.9
2018-09-23T04:50:55.319Z,3.3
2018-09-23T04:51:24.628Z,3.1
2018-09-23T04:51:53.934Z,2.7
2018-09-23T04:52:23.238Z,3.1
2018-09-23T04:52:52.565Z,3
2018-09-23T04:53:21.942Z,2.8
2018-09-23T04:53:51.244Z,3.1
2018-09-23T04:54:20.541Z,3.3
2018-09-23T04:54:49.831Z,3.1
2018-09-23T04:55:19.187Z,3.1
2018-09-23T04:55:48.408Z,3.2
2018-09-23T04:56:17.750Z,3.3
2018-09-23T04:56:47.053Z,3.1
2018-09-23T04:57:16.326Z,2.8
2018-09-23T04:57:45.664Z,3
2018-09-23T04:58:15.043Z,3.1
2018-09-23T04:58:44.389Z,3.2
2018-09-23T04:59:13.742Z,3
2018-09-23T04:59:43.025Z,3.1
2018-09-23T05:00:12.306Z,2.9
2018-09-23T05:00:41.603Z,3.2
2018-09-23T05:01:10.883Z,3
2018-09-23T05:01:40.161Z,3
2018-09-23T05:02:09.478Z,2.9
2018-09-23T05:02:38.768Z,3
2018-09-23T05:03:08.105Z,3
2018-09-23T05:03:37.386Z,3
2018-09-23T05:04:06.679Z,2.9
2018-09-23T05:04:35.927Z,3.1
2018-09-23T05:05:05.229Z,2.8
2018-09-23T05:05:34.581Z,3
2018-09-23T05:06:03.827Z,3
2018-09-23T05:06:33.125Z,3.1
2018-09-23T05:07:02.434Z,3.4
2018-09-23T05:07:31.719Z,3.2
2018-09-23T05:08:01.006Z,2.9
2018-09-23T05:08:31.327Z,3.2
2018-09-23T05:09:00.602Z,3
2018-09-23T05:09:29.978Z,3.2
2018-09-23T05:09:59.264Z,3.4
2018-09-23T05:10:29.535Z,3
2018-09-23T05:10:58.794Z,3.1
2018-09-23T05:11:28.100Z,3.4
2018-09-23T05:11:57.348Z,3.2
2018-09-23T05:12:26.636Z,3.3
2018-09-23T05:12:55.898Z,3.3
2018-09-23T05:13:25.253Z,3.2
2018-09-23T05:13:54.535Z,3.4
2018-09-23T05:14:23.803Z,3.5
2018-09-23T05:14:53.083Z,3.5
2018-09-23T05:15:22.373Z,3.7
2018-09-23T05:15:51.642Z,3.6
2018-09-23T05:16:20.936Z,3.3
2018-09-23T05:16:50.237Z,3.3
2018-09-23T05:17:19.494Z,3.3
2018-09-23T05:17:48.765Z,3.2
2018-09-23T05:18:18.138Z,2.9
2018-09-23T05:18:47.500Z,3.4
2018-09-23T05:19:16.757Z,2.9
2018-09-23T05:19:46.032Z,3
2018-09-23T05:20:15.315Z,3
2018-09-23T05:20:44.627Z,3.3
2018-09-23T05:21:13.908Z,3.3
2018-09-23T05:21:43.188Z,3.2
2018-09-23T05:22:12.471Z,3.1
2018-09-23T05:22:41.731Z,3
2018-09-23T05:23:10.985Z,3.2
2018-09-23T05:23:40.342Z,3.1
2018-09-23T05:24:09.620Z,3.1
2018-09-23T05:24:39.942Z,2.9
2018-09-23T05:25:09.233Z,2.9
2018-09-23T05:25:38.529Z,3
2018-09-23T05:26:07.805Z,3.1
2018-09-23T05:26:37.090Z,2.7
2018-09-23T05:27:06.382Z,3.3
2018-09-23T05:27:35.658Z,3.2
2018-09-23T05:28:04.957Z,3
2018-09-23T05:28:34.317Z,3.2
2018-09-23T05:29:03.648Z,4
2018-09-23T05:29:32.960Z,3.5
2018-09-23T05:30:02.233Z,3.2
2018-09-23T05:30:31.556Z,3.4
2018-09-23T05:31:00.858Z,3.6
2018-09-23T05:31:30.156Z,3.4
2018-09-23T05:31:59.422Z,3.4
2018-09-23T05:32:28.706Z,3.3
2018-09-23T05:32:58.005Z,3
2018-09-23T05:33:27.358Z,3.1
2018-09-23T05:33:56.677Z,3.3
2018-09-23T05:34:25.962Z,3
2018-09-23T05:34:55.289Z,3.2
2018-09-23T05:35:25.643Z,3.1
2018-09-23T05:35:54.916Z,2.9
2018-09-23T05:36:24.238Z,3
2018-09-23T05:36:53.520Z,3.1
2018-09-23T05:37:22.779Z,2.8
2018-09-23T05:37:52.068Z,2.8
2018-09-23T05:38:21.378Z,3.4
2018-09-23T05:38:50.662Z,3.3
2018-09-23T05:39:19.995Z,3.1
2018-09-23T05:39:49.287Z,3.3
2018-09-23T05:40:18.559Z,3.1
2018-09-23T05:40:47.835Z,3.2
2018-09-23T05:41:17.141Z,3.2
2018-09-23T05:41:46.442Z,3.3
2018-09-23T05:42:15.693Z,3.3
2018-09-23T05:42:45.016Z,3.2
2018-09-23T05:43:14.264Z,3.2
2018-09-23T05:43:43.529Z,3.1
2018-09-23T05:44:12.904Z,3.4
2018-09-23T05:44:42.221Z,3.3
2018-09-23T05:45:11.581Z,3
2018-09-23T05:45:40.874Z,3.2
2018-09-23T05:46:10.236Z,3.2
2018-09-23T05:46:39.501Z,3.2
2018-09-23T05:47:08.814Z,3.5
2018-09-23T05:47:38.161Z,3.2
2018-09-23T05:48:07.468Z,3.1
2018-09-23T05:48:36.790Z,3.3
2018-09-23T05:49:06.140Z,2.9
2018-09-23T05:49:35.634Z,3.4
2018-09-23T05:50:04.858Z,3.4
2018-09-23T05:50:34.145Z,3.2
2018-09-23T05:51:03.473Z,3.2
2018-09-23T05:51:32.809Z,3.2
2018-09-23T05:52:02.099Z,2.9
2018-09-23T05:52:31.394Z,3.2
2018-09-23T05:53:00.731Z,3
2018-09-23T05:53:29.998Z,3
2018-09-23T05:53:59.332Z,3.4
2018-09-23T05:54:28.681Z,3
2018-09-23T05:54:57.959Z,3.5
2018-09-23T05:55:27.262Z,3.3
2018-09-23T05:55:56.537Z,3.2
2018-09-23T05:56:25.862Z,3.2
2018-09-23T05:56:55.259Z,3.4
2018-09-23T05:57:24.637Z,3.4
2018-09-23T05:57:53.999Z,3.3
2018-09-23T05:58:23.389Z,3.1
2018-09-23T05:58:52.769Z,3.3
2018-09-23T05:59:22.133Z,3
2018-09-23T05:59:51.518Z,3.1
2018-09-23T06:00:20.871Z,3.2
2018-09-23T06:00:50.190Z,3.2
2018-09-23T06:01:19.514Z,3.3
2018-09-23T06:01:48.932Z,3.1
2018-09-23T06:02:18.301Z,3.5
2018-09-23T06:02:48.033Z,3.3
2018-09-23T06:03:17.503Z,3.3
2018-09-23T06:03:46.791Z,3.1
2018-09-23T06:04:16.124Z,3.2
2018-09-23T06:04:45.566Z,3.1
2018-09-23T06:05:14.932Z,3.1
2018-09-23T06:05:44.324Z,3.2
2018-09-23T06:06:13.678Z,3.2
2018-09-23T06:06:43.010Z,3.3
2018-09-23T06:07:12.342Z,2.7
2018-09-23T06:07:41.648Z,3
2018-09-23T06:08:11.007Z,3.3
2018-09-23T06:08:40.325Z,3.2
2018-09-23T06:09:09.622Z,3.4
2018-09-23T06:09:38.954Z,3.2
2018-09-23T06:10:08.310Z,3.3
2018-09-23T06:10:37.646Z,3.4
2018-09-23T06:11:06.965Z,3.2
2018-09-23T06:11:36.218Z,3.1
2018-09-23T06:12:05.504Z,3.3
2018-09-23T06:12:34.797Z,3.2
2018-09-23T06:13:04.071Z,3.3
2018-09-23T06:13:33.373Z,3.4
2018-09-23T06:14:02.657Z,3.3
2018-09-23T06:14:31.996Z,3.1
2018-09-23T06:15:01.348Z,3.1
2018-09-23T06:15:30.634Z,3.4
2018-09-23T06:15:59.937Z,3.7
2018-09-23T06:16:29.241Z,3.7
2018-09-23T06:16:59.499Z,3.6
2018-09-23T06:17:28.808Z,3.7
2018-09-23T06:17:58.208Z,3.5
2018-09-23T06:18:27.575Z,3.2
2018-09-23T06:18:56.876Z,3.5
2018-09-23T06:19:26.260Z,3.5
2018-09-23T06:19:55.724Z,3.6
2018-09-23T06:20:26.084Z,3.2
2018-09-23T06:20:55.435Z,3.5
2018-09-23T06:21:24.801Z,3.2
2018-09-23T06:21:54.179Z,3.3
2018-09-23T06:22:23.531Z,3.6
2018-09-23T06:22:52.877Z,3.3
2018-09-23T06:23:22.307Z,3.5
2018-09-23T06:23:51.617Z,3.5
2018-09-23T06:24:21.934Z,3.4
2018-09-23T06:24:51.348Z,3.3
2018-09-23T06:25:20.733Z,3.2
2018-09-23T06:25:49.964Z,3.3
2018-09-23T06:26:19.232Z,3.3
2018-09-23T06:26:48.536Z,3.1
2018-09-23T06:27:17.792Z,3.4
2018-09-23T06:27:47.071Z,3.1
2018-09-23T06:28:16.344Z,3.3
2018-09-23T06:28:45.630Z,3.3
2018-09-23T06:29:14.967Z,3.3
2018-09-23T06:29:45.399Z,3.2
2018-09-23T06:30:14.719Z,3.1
2018-09-23T06:30:44.099Z,3.1
2018-09-23T06:31:13.421Z,3.5
2018-09-23T06:31:42.731Z,3.1
2018-09-23T06:32:12.029Z,3.3
2018-09-23T06:32:41.334Z,3.3
2018-09-23T06:33:10.632Z,3.1
2018-09-23T06:33:39.965Z,3.4
2018-09-23T06:34:09.415Z,3.3
2018-09-23T06:34:38.642Z,3.7
2018-09-23T06:35:08.018Z,3.1
2018-09-23T06:35:37.363Z,3.3
2018-09-23T06:36:06.714Z,3.2
2018-09-23T06:36:36.028Z,2.9
2018-09-23T06:37:05.377Z,3.2
2018-09-23T06:37:34.628Z,3.3
2018-09-23T06:38:04.156Z,3.4
2018-09-23T06:38:33.461Z,3.1
2018-09-23T06:39:03.803Z,3.2
2018-09-23T06:39:33.103Z,2.9
2018-09-23T06:40:02.447Z,3
2018-09-23T06:40:31.758Z,3
2018-09-23T06:41:02.073Z,3.2
2018-09-23T06:41:31.386Z,3.1
2018-09-23T06:42:00.725Z,3.1
2018-09-23T06:42:30.024Z,3.4
2018-09-23T06:42:59.317Z,3
2018-09-23T06:43:28.618Z,3.3
2018-09-23T06:43:58.119Z,2.7
2018-09-23T06:44:27.459Z,3
2018-09-23T06:44:56.790Z,3.4
2018-09-23T06:45:26.115Z,3.1
2018-09-23T06:45:55.490Z,2.9
2018-09-23T06:46:24.752Z,3.1
2018-09-23T06:46:54.068Z,3.3
2018-09-23T06:47:23.340Z,3.4
2018-09-23T06:47:52.637Z,3.1
2018-09-23T06:48:21.904Z,3.2
2018-09-23T06:48:51.184Z,3.3
2018-09-23T06:49:20.571Z,3.6
2018-09-23T06:49:49.869Z,3.5
2018-09-23T06:50:19.173Z,3.5
2018-09-23T06:50:48.489Z,3.1
2018-09-23T06:51:17.851Z,3.4
2018-09-23T06:51:47.128Z,3.3
2018-09-23T06:52:16.417Z,3.3
2018-09-23T06:52:45.762Z,3.1
2018-09-23T06:53:15.093Z,3.3
2018-09-23T06:53:44.391Z,3.2
2018-09-23T06:54:13.694Z,3.1
2018-09-23T06:54:42.974Z,3.2
2018-09-23T06:55:12.278Z,3.2
2018-09-23T06:55:41.637Z,3.3
2018-09-23T06:56:10.992Z,3.4
2018-09-23T06:56:41.258Z,3.1